createdAt,value
2023-05-20T00:00:53.262Z,22.84
2023-05-20T00:03:20.910Z,22.67
2023-05-20T00:05:48.277Z,21.77
2023-05-20T00:08:15.501Z,21.02
2023-05-20T00:10:43.000Z,20.17
2023-05-20T00:13:10.221Z,19.61
2023-05-20T00:15:37.852Z,18.58
2023-05-20T00:18:05.755Z,18.45
2023-05-20T00:20:33.071Z,18.58
2023-05-20T00:23:00.501Z,20.29
2023-05-20T00:25:27.994Z,20.83
2023-05-20T00:27:55.199Z,22.10
2023-05-20T00:30:22.521Z,22.24
2023-05-20T00:32:50.215Z,22.40
2023-05-20T00:35:17.490Z,22.21
2023-05-20T00:37:44.746Z,21.91
2023-05-20T00:40:14.837Z,20.88
2023-05-20T00:42:43.133Z,20.07
2023-05-20T00:45:10.675Z,18.22
2023-05-20T00:47:38.252Z,17.52
2023-05-20T00:50:05.861Z,17.10
2023-05-20T00:52:33.139Z,16.83
2023-05-20T00:55:00.610Z,17.47
2023-05-20T00:57:27.815Z,18.39
2023-05-20T00:59:55.097Z,18.32
2023-05-20T01:02:22.792Z,19.69
2023-05-20T01:04:50.746Z,19.97
2023-05-20T01:07:18.284Z,20.75
2023-05-20T01:09:45.790Z,21.40
2023-05-20T01:12:16.885Z,22.73
2023-05-20T01:14:47.211Z,23.12
2023-05-20T01:17:17.818Z,22.28
2023-05-20T01:19:45.398Z,22.18
2023-05-20T01:22:13.393Z,22.16
2023-05-20T01:24:49.881Z,21.62
2023-05-20T01:27:17.096Z,21.10
2023-05-20T01:29:45.986Z,20.09
2023-05-20T01:32:16.119Z,20.21
2023-05-20T01:34:43.927Z,19.70
2023-05-20T01:37:11.484Z,20.39
2023-05-20T01:39:38.707Z,20.84
2023-05-20T01:42:06.348Z,20.15
2023-05-20T01:44:33.861Z,20.19
2023-05-20T01:47:01.746Z,19.54
2023-05-20T01:49:29.312Z,17.60
2023-05-20T01:51:57.087Z,18.02
2023-05-20T01:54:24.336Z,16.76
2023-05-20T01:56:51.724Z,15.94
2023-05-20T01:59:19.247Z,15.81
2023-05-20T02:01:46.563Z,16.17
2023-05-20T02:04:15.875Z,15.98
2023-05-20T02:06:43.292Z,16.00
2023-05-20T02:09:10.530Z,17.34
2023-05-20T02:11:38.221Z,18.85
2023-05-20T02:14:05.561Z,16.66
2023-05-20T02:16:32.816Z,17.05
2023-05-20T02:19:02.165Z,16.83
2023-05-20T02:21:29.789Z,16.61
2023-05-20T02:23:57.040Z,17.16
2023-05-20T02:26:25.396Z,16.84
2023-05-20T02:28:52.873Z,18.77
2023-05-20T02:31:22.551Z,18.93
2023-05-20T02:33:49.826Z,17.97
2023-05-20T02:36:17.397Z,18.68
2023-05-20T02:38:44.752Z,19.40
2023-05-20T02:41:12.013Z,20.79
2023-05-20T02:43:40.697Z,20.31
2023-05-20T02:46:07.899Z,20.27
2023-05-20T02:48:35.080Z,20.42
2023-05-20T02:51:02.747Z,20.44
2023-05-20T02:53:29.994Z,20.07
2023-05-20T02:55:57.714Z,20.62
2023-05-20T02:58:26.443Z,20.95
2023-05-20T03:00:53.988Z,21.07
2023-05-20T03:03:21.773Z,20.68
2023-05-20T03:05:50.193Z,20.31
2023-05-20T03:08:18.577Z,20.04
2023-05-20T03:10:45.794Z,19.92
2023-05-20T03:13:15.184Z,20.14
2023-05-20T03:15:42.567Z,19.67
2023-05-20T03:18:09.852Z,19.79
2023-05-20T03:20:38.335Z,20.08
2023-05-20T03:23:06.181Z,19.78
2023-05-20T03:25:34.130Z,20.04
2023-05-20T03:28:01.914Z,21.06
2023-05-20T03:30:29.621Z,20.94
2023-05-20T03:32:59.870Z,20.58
2023-05-20T03:35:27.607Z,20.52
2023-05-20T03:37:55.107Z,20.60
2023-05-20T03:40:22.496Z,20.42
2023-05-20T03:42:51.077Z,20.68
2023-05-20T03:45:18.727Z,20.15
2023-05-20T03:47:47.306Z,20.45
2023-05-20T03:50:16.501Z,20.06
2023-05-20T03:52:43.937Z,20.31
2023-05-20T03:55:11.382Z,20.86
2023-05-20T03:57:39.048Z,20.45
2023-05-20T04:00:12.006Z,20.42
2023-05-20T04:02:43.517Z,20.16
2023-05-20T04:05:11.819Z,21.02
2023-05-20T04:07:39.330Z,19.94
2023-05-20T04:10:09.539Z,19.74
2023-05-20T04:12:38.388Z,19.60
2023-05-20T04:15:06.142Z,20.10
2023-05-20T04:17:33.978Z,19.49
2023-05-20T04:20:01.507Z,19.60
2023-05-20T04:22:29.122Z,20.11
2023-05-20T04:24:56.582Z,19.76
2023-05-20T04:27:26.332Z,20.32
2023-05-20T04:29:55.030Z,18.85
2023-05-20T04:32:22.532Z,19.68
2023-05-20T04:34:50.726Z,20.00
2023-05-20T04:37:18.445Z,19.77
2023-05-20T04:39:48.333Z,19.43
2023-05-20T04:42:18.486Z,19.34
2023-05-20T04:44:48.809Z,19.41
2023-05-20T04:47:16.552Z,20.11
2023-05-20T04:49:43.876Z,20.76
2023-05-20T04:52:11.134Z,20.65
2023-05-20T04:54:40.331Z,20.01
2023-05-20T04:57:07.813Z,19.87
2023-05-20T04:59:35.400Z,20.73
2023-05-20T05:02:03.273Z,20.39
2023-05-20T05:04:30.630Z,20.69
2023-05-20T05:06:57.898Z,21.32
2023-05-20T05:09:25.436Z,21.05
2023-05-20T05:11:52.935Z,21.08
2023-05-20T05:14:20.160Z,20.64
2023-05-20T05:16:47.666Z,20.84
2023-05-20T05:19:15.562Z,21.31
2023-05-20T05:21:43.063Z,20.88
2023-05-20T05:24:11.001Z,21.50
2023-05-20T05:26:38.371Z,21.17
2023-05-20T05:29:05.606Z,21.35
2023-05-20T05:31:33.162Z,22.31
2023-05-20T05:34:01.411Z,21.40
2023-05-20T05:36:28.682Z,21.97
2023-05-20T05:38:56.615Z,22.47
2023-05-20T05:41:23.856Z,21.86
2023-05-20T05:43:51.968Z,21.12
2023-05-20T05:46:19.560Z,21.24
2023-05-20T05:48:49.223Z,22.16
2023-05-20T05:51:17.390Z,23.35
2023-05-20T05:53:45.264Z,23.25
2023-05-20T05:56:12.554Z,21.82
2023-05-20T05:58:40.134Z,22.60
2023-05-20T06:01:07.987Z,22.45
2023-05-20T06:03:35.714Z,22.17
2023-05-20T06:06:03.157Z,23.92
2023-05-20T06:08:30.703Z,23.15
2023-05-20T06:10:59.674Z,21.65
2023-05-20T06:13:29.532Z,21.23
2023-05-20T06:15:57.113Z,21.97
2023-05-20T06:18:25.999Z,21.91
2023-05-20T06:20:56.935Z,21.93
2023-05-20T06:23:24.827Z,22.31
2023-05-20T06:25:53.576Z,22.67
2023-05-20T06:28:20.849Z,22.50
2023-05-20T06:30:48.158Z,22.83
2023-05-20T06:33:16.129Z,22.70
2023-05-20T06:35:43.349Z,23.71
2023-05-20T06:38:10.943Z,23.13
2023-05-20T06:40:38.793Z,23.19
2023-05-20T06:43:06.035Z,23.02
2023-05-20T06:45:41.887Z,23.01
2023-05-20T06:48:11.319Z,23.92
2023-05-20T06:50:38.912Z,24.58
2023-05-20T06:53:06.621Z,23.11
2023-05-20T06:55:34.425Z,23.56
2023-05-20T06:58:01.974Z,23.10
2023-05-20T07:00:29.716Z,23.73
2023-05-20T07:02:57.963Z,23.92
2023-05-20T07:05:25.849Z,24.27
2023-05-20T07:07:53.398Z,23.73
2023-05-20T07:10:21.178Z,24.47
2023-05-20T07:12:48.858Z,24.10
2023-05-20T07:15:16.446Z,23.95
2023-05-20T07:17:43.766Z,25.24
2023-05-20T07:20:11.174Z,24.86
2023-05-20T07:22:39.163Z,26.28
2023-05-20T07:25:07.480Z,27.63
2023-05-20T07:27:35.947Z,27.96
2023-05-20T07:30:03.710Z,29.43
2023-05-20T07:32:31.486Z,29.35
2023-05-20T07:34:59.448Z,29.34
2023-05-20T07:37:28.641Z,29.76
2023-05-20T07:39:56.252Z,30.24
2023-05-20T07:42:23.501Z,31.17
2023-05-20T07:44:51.389Z,29.88
2023-05-20T07:47:19.061Z,31.13
2023-05-20T07:49:46.952Z,30.88
2023-05-20T07:52:14.437Z,31.88
2023-05-20T07:54:41.971Z,31.98
2023-05-20T07:57:09.383Z,32.98
2023-05-20T07:59:36.932Z,31.45
2023-05-20T08:02:05.089Z,32.76
2023-05-20T08:04:33.004Z,33.17
2023-05-20T08:07:00.348Z,32.27
2023-05-20T08:09:28.197Z,32.76
2023-05-20T08:11:55.952Z,31.07
2023-05-20T08:14:23.333Z,31.89
2023-05-20T08:16:53.799Z,32.48
2023-05-20T08:19:22.321Z,31.85
2023-05-20T08:21:49.865Z,32.38
2023-05-20T08:24:17.596Z,31.60
2023-05-20T08:26:45.294Z,32.42
2023-05-20T08:29:12.741Z,32.23
2023-05-20T08:31:40.546Z,30.94
2023-05-20T08:34:08.342Z,32.37
2023-05-20T08:36:35.988Z,32.09
2023-05-20T08:39:04.516Z,31.52
2023-05-20T08:41:32.244Z,32.42
2023-05-20T08:44:01.856Z,31.95
2023-05-20T08:46:30.050Z,31.51
2023-05-20T08:48:59.397Z,31.43
2023-05-20T08:51:27.394Z,30.70
2023-05-20T08:53:54.624Z,29.94
2023-05-20T08:56:23.647Z,30.50
2023-05-20T08:58:51.166Z,30.27
2023-05-20T09:01:18.688Z,30.18
2023-05-20T09:03:46.215Z,30.92
2023-05-20T09:06:17.035Z,30.72
2023-05-20T09:08:44.830Z,30.48
2023-05-20T09:11:12.495Z,31.03
2023-05-20T09:13:39.789Z,30.47
2023-05-20T09:16:07.439Z,30.38
2023-05-20T09:18:39.026Z,29.51
2023-05-20T09:21:09.384Z,28.91
2023-05-20T09:23:38.304Z,29.06
2023-05-20T09:26:06.138Z,29.39
2023-05-20T09:28:33.861Z,29.06
2023-05-20T09:31:02.203Z,29.01
2023-05-20T09:33:30.504Z,28.93
2023-05-20T09:36:05.124Z,29.43
2023-05-20T09:38:39.086Z,29.55
2023-05-20T09:41:09.425Z,29.03
2023-05-20T09:43:39.493Z,29.73
2023-05-20T09:46:08.260Z,29.96
2023-05-20T09:48:37.290Z,28.88
2023-05-20T09:51:06.935Z,29.52
2023-05-20T09:53:34.642Z,29.76
2023-05-20T09:56:02.129Z,30.16
2023-05-20T09:58:30.285Z,30.09
2023-05-20T10:00:57.829Z,30.03
2023-05-20T10:03:28.060Z,30.15
2023-05-20T10:06:25.718Z,30.15
2023-05-20T10:09:19.328Z,30.30
2023-05-20T10:12:04.569Z,30.32
2023-05-20T10:14:59.839Z,30.54
2023-05-20T10:17:36.590Z,30.97
2023-05-20T10:20:09.203Z,31.21
2023-05-20T10:22:36.667Z,30.91
2023-05-20T10:25:12.460Z,31.26
2023-05-20T10:27:47.101Z,31.01
2023-05-20T10:30:22.413Z,30.92
2023-05-20T10:32:54.468Z,31.38
2023-05-20T10:35:26.414Z,31.83
2023-05-20T10:37:55.398Z,31.77
2023-05-20T10:40:23.240Z,31.82
2023-05-20T10:42:50.690Z,31.59
2023-05-20T10:45:28.926Z,31.08
2023-05-20T10:47:58.612Z,31.35
2023-05-20T10:50:36.839Z,31.65
2023-05-20T10:53:15.958Z,31.15
2023-05-20T10:55:54.694Z,31.89
2023-05-20T10:58:23.935Z,31.42
2023-05-20T11:00:54.770Z,31.84
2023-05-20T11:03:23.400Z,31.89
2023-05-20T11:05:51.232Z,32.16
2023-05-20T11:08:28.388Z,32.84
2023-05-20T11:10:57.752Z,32.79
2023-05-20T11:13:27.149Z,32.06
2023-05-20T11:15:55.611Z,32.50
2023-05-20T11:18:23.406Z,32.57
2023-05-20T11:20:51.140Z,32.14
2023-05-20T11:23:19.244Z,32.96
2023-05-20T11:25:47.057Z,31.82
2023-05-20T11:28:14.729Z,31.72
2023-05-20T11:30:43.180Z,32.44
2023-05-20T11:33:17.466Z,31.62
2023-05-20T11:35:52.867Z,31.30
2023-05-20T11:38:21.874Z,31.89
2023-05-20T11:40:54.810Z,31.99
2023-05-20T11:43:23.780Z,32.24
2023-05-20T11:45:56.197Z,32.64
2023-05-20T11:48:24.532Z,32.46
2023-05-20T11:50:55.631Z,31.96
2023-05-20T11:53:24.439Z,32.30
2023-05-20T11:55:56.377Z,32.69
2023-05-20T11:58:25.551Z,32.45
2023-05-20T12:00:59.512Z,32.30
2023-05-20T12:03:37.590Z,32.24
2023-05-20T12:06:05.295Z,31.81
2023-05-20T12:08:32.771Z,32.05
2023-05-20T12:11:00.498Z,31.35
2023-05-20T12:13:27.966Z,32.24
2023-05-20T12:15:55.485Z,32.27
2023-05-20T12:18:23.396Z,31.93
2023-05-20T12:20:51.655Z,32.15
2023-05-20T12:23:19.200Z,31.75
2023-05-20T12:25:49.849Z,32.31
2023-05-20T12:28:17.791Z,32.49
2023-05-20T12:30:45.211Z,32.12
2023-05-20T12:33:12.960Z,32.03
2023-05-20T12:35:42.229Z,31.97
2023-05-20T12:38:10.153Z,32.92
2023-05-20T12:40:38.417Z,32.70
2023-05-20T12:43:06.383Z,31.88
2023-05-20T12:45:33.822Z,31.84
2023-05-20T12:48:01.838Z,32.07
2023-05-20T12:50:29.842Z,32.79
2023-05-20T12:52:57.335Z,32.67
2023-05-20T12:55:30.770Z,32.59
2023-05-20T12:57:58.681Z,32.17
2023-05-20T13:00:26.425Z,32.77
2023-05-20T13:02:54.820Z,32.75
2023-05-20T13:05:22.857Z,32.28
2023-05-20T13:07:50.618Z,32.46
2023-05-20T13:10:18.606Z,32.29
2023-05-20T13:12:46.406Z,31.99
2023-05-20T13:15:14.776Z,32.51
2023-05-20T13:17:45.008Z,31.41
2023-05-20T13:20:13.102Z,31.08
2023-05-20T13:22:40.743Z,31.28
2023-05-20T13:25:08.206Z,32.03
2023-05-20T13:27:35.481Z,32.15
2023-05-20T13:30:04.139Z,32.16
2023-05-20T13:32:31.547Z,32.20
2023-05-20T13:34:59.753Z,32.44
2023-05-20T13:37:27.289Z,31.67
2023-05-20T13:39:54.478Z,32.15
2023-05-20T13:42:21.733Z,32.50
2023-05-20T13:44:49.233Z,32.73
2023-05-20T13:47:16.448Z,31.69
2023-05-20T13:49:43.692Z,31.83
2023-05-20T13:52:11.276Z,31.78
2023-05-20T13:54:38.653Z,31.51
2023-05-20T13:57:08.084Z,31.88
2023-05-20T13:59:35.805Z,32.29
2023-05-20T14:02:03.230Z,32.17
2023-05-20T14:04:38.163Z,32.87
2023-05-20T14:07:07.718Z,32.57
2023-05-20T14:09:36.832Z,31.81
2023-05-20T14:12:04.524Z,32.00
2023-05-20T14:14:31.858Z,31.55
2023-05-20T14:16:59.338Z,30.41
2023-05-20T14:19:26.954Z,30.96
2023-05-20T14:21:54.266Z,31.60
2023-05-20T14:24:23.827Z,30.60
2023-05-20T14:26:51.271Z,30.65
2023-05-20T14:29:18.447Z,31.43
2023-05-20T14:31:46.268Z,30.56
2023-05-20T14:34:13.506Z,30.63
2023-05-20T14:36:40.857Z,29.89
2023-05-20T14:39:08.369Z,31.28
2023-05-20T14:41:36.455Z,31.75
2023-05-20T14:44:03.647Z,32.01
2023-05-20T14:46:31.315Z,31.55
2023-05-20T14:48:58.589Z,31.00
2023-05-20T14:51:25.846Z,31.03
2023-05-20T14:53:53.304Z,31.09
2023-05-20T14:56:20.807Z,30.95
2023-05-20T14:58:48.006Z,31.26
2023-05-20T15:01:15.659Z,32.37
2023-05-20T15:03:42.960Z,31.67
2023-05-20T15:06:10.218Z,32.39
2023-05-20T15:08:37.680Z,31.53
2023-05-20T15:11:04.936Z,30.88
2023-05-20T15:13:32.203Z,31.94
2023-05-20T15:15:59.676Z,31.45
2023-05-20T15:18:27.365Z,31.46
2023-05-20T15:20:54.601Z,31.12
2023-05-20T15:23:22.130Z,30.90
2023-05-20T15:25:50.393Z,31.31
2023-05-20T15:28:19.779Z,31.51
2023-05-20T15:30:51.298Z,30.48
2023-05-20T15:33:18.595Z,31.13
2023-05-20T15:35:45.832Z,31.40
2023-05-20T15:38:13.667Z,31.83
2023-05-20T15:40:41.417Z,31.86
2023-05-20T15:43:08.960Z,31.01
2023-05-20T15:45:36.492Z,32.24
2023-05-20T15:48:04.296Z,31.71
2023-05-20T15:50:31.940Z,31.43
2023-05-20T15:52:59.476Z,31.19
2023-05-20T15:55:26.732Z,30.36
2023-05-20T15:57:53.958Z,30.78
2023-05-20T16:00:21.907Z,31.33
2023-05-20T16:02:50.808Z,31.84
2023-05-20T16:05:18.155Z,31.30
2023-05-20T16:07:46.774Z,32.10
2023-05-20T16:10:14.305Z,30.90
2023-05-20T16:12:41.571Z,30.36
2023-05-20T16:15:10.070Z,30.16
2023-05-20T16:17:37.798Z,30.53
2023-05-20T16:20:08.201Z,31.43
2023-05-20T16:22:35.474Z,30.93
2023-05-20T16:25:03.130Z,31.12
2023-05-20T16:27:31.871Z,30.87
2023-05-20T16:29:59.160Z,31.43
2023-05-20T16:32:27.123Z,31.14
2023-05-20T16:34:54.864Z,30.35
2023-05-20T16:37:22.084Z,31.66
2023-05-20T16:39:49.590Z,30.15
2023-05-20T16:42:16.791Z,30.81
2023-05-20T16:44:46.021Z,30.70
2023-05-20T16:47:13.521Z,30.76
2023-05-20T16:49:40.825Z,31.12
2023-05-20T16:52:08.714Z,30.35
2023-05-20T16:54:36.392Z,30.31
2023-05-20T16:57:04.008Z,28.96
2023-05-20T16:59:35.093Z,28.88
2023-05-20T17:02:02.538Z,28.48
2023-05-20T17:04:29.800Z,29.29
2023-05-20T17:06:57.114Z,28.48
2023-05-20T17:09:24.608Z,28.80
2023-05-20T17:11:52.980Z,29.00
2023-05-20T17:14:20.177Z,28.87
2023-05-20T17:16:47.775Z,29.04
2023-05-20T17:19:15.132Z,29.01
2023-05-20T17:21:42.365Z,29.56
2023-05-20T17:24:09.890Z,29.11
2023-05-20T17:26:37.166Z,28.86
2023-05-20T17:29:04.419Z,28.86
2023-05-20T17:31:31.926Z,28.98
2023-05-20T17:33:59.191Z,28.28
2023-05-20T17:36:26.801Z,28.10
2023-05-20T17:38:55.673Z,27.75
2023-05-20T17:41:23.161Z,27.88
2023-05-20T17:43:50.697Z,28.01
2023-05-20T17:46:18.621Z,28.15
2023-05-20T17:48:46.008Z,27.82
2023-05-20T17:51:13.293Z,28.46
2023-05-20T17:53:40.765Z,28.99
2023-05-20T17:56:07.990Z,29.08
2023-05-20T17:58:35.541Z,28.43
2023-05-20T18:01:03.105Z,28.57
2023-05-20T18:03:30.656Z,29.05
2023-05-20T18:05:57.935Z,29.19
2023-05-20T18:08:28.042Z,29.40
2023-05-20T18:10:55.712Z,29.16
2023-05-20T18:13:22.917Z,29.18
2023-05-20T18:15:50.210Z,29.32
2023-05-20T18:18:17.623Z,29.72
2023-05-20T18:20:44.858Z,29.56
2023-05-20T18:23:12.082Z,29.77
2023-05-20T18:25:41.804Z,29.51
2023-05-20T18:28:11.157Z,29.57
2023-05-20T18:30:38.432Z,29.05
2023-05-20T18:33:06.233Z,29.57
2023-05-20T18:35:34.043Z,29.31
2023-05-20T18:38:01.208Z,29.46
2023-05-20T18:40:29.151Z,29.19
2023-05-20T18:42:56.291Z,29.30
2023-05-20T18:45:24.912Z,29.30
2023-05-20T18:47:57.600Z,29.14
2023-05-20T18:50:24.844Z,29.40
2023-05-20T18:52:52.134Z,29.36
2023-05-20T18:55:19.678Z,29.31
2023-05-20T18:57:46.957Z,28.29
2023-05-20T19:00:15.604Z,27.04
2023-05-20T19:02:43.558Z,25.90
2023-05-20T19:05:12.471Z,24.59
2023-05-20T19:07:39.860Z,23.89
2023-05-20T19:10:08.275Z,23.96
2023-05-20T19:12:35.849Z,23.08
2023-05-20T19:15:05.161Z,22.79
2023-05-20T19:17:33.226Z,22.58
2023-05-20T19:20:00.858Z,22.36
2023-05-20T19:22:28.324Z,22.44
2023-05-20T19:24:56.040Z,22.13
2023-05-20T19:27:23.468Z,21.91
2023-05-20T19:29:50.841Z,22.30
2023-05-20T19:32:18.368Z,22.19
2023-05-20T19:34:45.678Z,21.83
2023-05-20T19:37:12.889Z,22.16
2023-05-20T19:39:40.594Z,22.03
2023-05-20T19:42:07.788Z,21.88
2023-05-20T19:44:34.956Z,21.48
2023-05-20T19:47:02.686Z,20.91
2023-05-20T19:49:30.099Z,21.17
2023-05-20T19:51:57.519Z,20.79
2023-05-20T19:54:27.016Z,20.95
2023-05-20T19:56:54.573Z,21.57
2023-05-20T19:59:22.040Z,22.42
2023-05-20T20:01:49.805Z,21.79
2023-05-20T20:04:18.538Z,21.70
2023-05-20T20:06:47.128Z,21.50
2023-05-20T20:09:14.604Z,21.24
2023-05-20T20:11:43.388Z,21.73
2023-05-20T20:14:11.126Z,21.32
2023-05-20T20:16:38.711Z,21.23
2023-05-20T20:19:06.532Z,21.38
2023-05-20T20:21:36.276Z,20.68
2023-05-20T20:24:03.630Z,21.73
2023-05-20T20:26:31.215Z,22.75
2023-05-20T20:28:58.477Z,22.86
2023-05-20T20:31:26.517Z,23.35
2023-05-20T20:33:54.016Z,23.74
2023-05-20T20:36:21.372Z,24.21
2023-05-20T20:38:48.566Z,24.66
2023-05-20T20:41:16.253Z,24.26
2023-05-20T20:43:44.922Z,24.68
2023-05-20T20:46:15.008Z,25.11
2023-05-20T20:48:45.918Z,25.20
2023-05-20T20:51:13.853Z,25.39
2023-05-20T20:53:42.051Z,25.51
2023-05-20T20:56:09.655Z,25.40
2023-05-20T20:58:37.802Z,25.56
2023-05-20T21:01:05.736Z,25.67
2023-05-20T21:03:40.428Z,25.57
2023-05-20T21:06:08.130Z,25.69
2023-05-20T21:08:35.879Z,25.50
2023-05-20T21:11:03.055Z,24.80
2023-05-20T21:13:30.591Z,25.41
2023-05-20T21:15:58.052Z,25.07
2023-05-20T21:18:25.520Z,25.39
2023-05-20T21:20:53.151Z,26.01
2023-05-20T21:23:20.948Z,25.97
2023-05-20T21:25:48.475Z,25.72
2023-05-20T21:28:16.135Z,26.17
2023-05-20T21:30:44.969Z,26.12
2023-05-20T21:33:12.430Z,26.01
2023-05-20T21:35:39.653Z,25.66
2023-05-20T21:38:07.091Z,25.60
2023-05-20T21:40:34.280Z,25.03
2023-05-20T21:43:01.600Z,25.38
2023-05-20T21:45:29.079Z,24.34
2023-05-20T21:47:56.400Z,25.34
2023-05-20T21:50:23.713Z,25.10
2023-05-20T21:52:51.285Z,25.47
2023-05-20T21:55:23.327Z,25.73
2023-05-20T21:57:51.152Z,24.66
2023-05-20T22:00:19.028Z,24.97
2023-05-20T22:02:46.686Z,25.24
2023-05-20T22:05:14.732Z,25.08
2023-05-20T22:07:41.931Z,25.42
2023-05-20T22:10:09.705Z,25.29
2023-05-20T22:12:38.094Z,25.32
2023-05-20T22:15:05.793Z,25.14
2023-05-20T22:17:36.724Z,24.86
2023-05-20T22:20:08.381Z,25.04
2023-05-20T22:22:36.101Z,25.38
2023-05-20T22:25:03.679Z,25.35
2023-05-20T22:27:31.728Z,25.41
2023-05-20T22:29:59.370Z,25.39
2023-05-20T22:32:26.724Z,25.61
2023-05-20T22:34:58.675Z,25.25
2023-05-20T22:37:26.440Z,24.23
2023-05-20T22:39:53.598Z,24.69
2023-05-20T22:42:20.882Z,25.19
2023-05-20T22:44:48.409Z,25.46
2023-05-20T22:47:15.967Z,25.34
2023-05-20T22:49:43.284Z,24.72
2023-05-20T22:52:11.644Z,24.75
2023-05-20T22:54:38.874Z,24.43
2023-05-20T22:57:06.157Z,24.93
2023-05-20T22:59:34.339Z,24.86
2023-05-20T23:02:02.344Z,24.75
2023-05-20T23:04:29.819Z,24.36
2023-05-20T23:06:59.257Z,24.06
2023-05-20T23:09:27.072Z,23.85
2023-05-20T23:11:54.247Z,24.14
2023-05-20T23:14:21.763Z,23.84
2023-05-20T23:16:49.028Z,23.93
2023-05-20T23:19:16.838Z,23.90
2023-05-20T23:21:44.339Z,24.21
2023-05-20T23:24:11.905Z,24.14
2023-05-20T23:26:39.660Z,23.18
2023-05-20T23:29:08.490Z,23.69
2023-05-20T23:31:36.011Z,23.30
2023-05-20T23:34:03.890Z,23.19
2023-05-20T23:36:34.586Z,23.84
2023-05-20T23:39:04.048Z,22.89
2023-05-20T23:41:31.693Z,22.90
2023-05-20T23:43:59.017Z,22.90
2023-05-20T23:46:26.256Z,23.52
2023-05-20T23:48:54.634Z,23.41
2023-05-20T23:51:21.905Z,23.33
2023-05-20T23:53:49.200Z,23.30
2023-05-20T23:56:16.772Z,22.39
2023-05-20T23:58:43.969Z,22.47
